Airfield :
LOGIN :

Register | Disclaimer

   EN    FR    IT 

 










Legend :    VFR   Marginal VFR   IFR   Intensive IFR   Very Intensive IFR
Visi :
Ceiling :
>= 8 km
>= 3000ft
5 to 8 km
1000 to 3000 ft
1500m to 5 km
500 to 1000 ft
800 to 1500m
200 to 500 ft
< 800m
< 200 ft
Symbols :   Thunderstorms  Fog  Heavy snow  Heavy precipitations  Wind > 20 kt
SIGMETs :     Misc.  Thunderstorms  Icing  Turbulence  Mountain Waves  Volcanic Ashes






- Airport Elevation : 112 ft
- IATA code : KIR


EIKY - Kerry Farranfore

CURRENT METAR :
  • 081330Z VRB02KT CAVOK 21/10 Q1024

EXPIRED METARs :
  • 081230Z 30003KT 220V010 CAVOK 20/11 Q1024
  • 081200Z VRB02KT CAVOK 20/11 Q1024
  • 081130Z VRB03KT 9999 FEW028 20/13 Q1024
  • 081100Z 15003KT 050V210 CAVOK 18/12 Q1024

TAF COR TAF EIKY
Valid from the 08 at 12:00 until the 08 at 21:00 UTC


081110Z 0812/0821 VRB03KT 9999 FEW040
BECMG 0813/0815 31011KT
BECMG 0819/0821 34005KT



MET'MAP, your aeronautical weather chart ! - Copyright ORBIFLY December 2007 - Disclaimer

ORBIFLY MET'MAP TEAM :

Programming & Development : Alexandra Zaïnal
Concept & original design : Baudouin d'Aumeries
Assistance for programming : Marc-Olivier Méhu
Technical & hardware support : Manuel Goepfert

Contact : metmap@orbifly.com




SOURCES & CREDITS :

   NOAA